createdAt,value
2022-12-11T00:00:12.795Z,9.73
2022-12-11T00:03:17.130Z,10.05
2022-12-11T00:06:21.860Z,8.60
2022-12-11T00:09:24.165Z,8.30
2022-12-11T00:12:26.345Z,7.43
2022-12-11T00:15:29.835Z,8.27
2022-12-11T00:18:32.619Z,8.02
2022-12-11T00:21:35.812Z,8.13
2022-12-11T00:24:38.803Z,7.40
2022-12-11T00:27:41.903Z,8.10
2022-12-11T00:30:45.297Z,7.25
2022-12-11T00:33:51.462Z,7.93
2022-12-11T00:36:54.342Z,6.95
2022-12-11T00:39:57.435Z,7.40
2022-12-11T00:43:00.435Z,6.10
2022-12-11T00:46:04.075Z,6.88
2022-12-11T00:49:07.136Z,6.70
2022-12-11T00:52:11.148Z,6.68
2022-12-11T00:55:14.347Z,6.27
2022-12-11T00:58:17.336Z,9.40
2022-12-11T01:01:22.514Z,10.93
2022-12-11T01:04:25.365Z,13.77
2022-12-11T01:07:29.071Z,13.52
2022-12-11T01:10:32.709Z,12.47
2022-12-11T01:13:35.770Z,12.97
2022-12-11T01:16:39.033Z,13.40
2022-12-11T01:19:41.955Z,15.00
2022-12-11T01:22:44.450Z,14.38
2022-12-11T01:25:46.627Z,15.47
2022-12-11T01:28:51.091Z,15.40
2022-12-11T01:31:53.513Z,14.57
2022-12-11T01:34:55.715Z,19.40
2022-12-11T01:37:57.974Z,15.98
2022-12-11T01:41:00.243Z,15.37
2022-12-11T01:44:06.401Z,16.83
2022-12-11T01:47:08.646Z,16.48
2022-12-11T01:50:11.384Z,16.92
2022-12-11T01:53:17.801Z,16.77
2022-12-11T01:56:20.299Z,17.33
2022-12-11T01:59:27.412Z,15.87
2022-12-11T02:02:30.993Z,16.02
2022-12-11T02:05:33.281Z,19.08
2022-12-11T02:08:35.501Z,19.55
2022-12-11T02:11:47.542Z,15.87
2022-12-11T02:14:55.475Z,16.13
2022-12-11T02:18:11.989Z,13.80
2022-12-11T02:21:24.299Z,13.50
2022-12-11T02:24:55.462Z,13.30
2022-12-11T02:28:26.802Z,12.73
2022-12-11T02:31:32.875Z,9.80
2022-12-11T02:34:42.332Z,12.35
2022-12-11T02:37:45.594Z,12.60
2022-12-11T02:40:49.778Z,9.93
2022-12-11T02:43:52.720Z,11.87
2022-12-11T02:46:55.360Z,10.47
2022-12-11T02:49:58.464Z,11.10
2022-12-11T02:53:02.188Z,9.85
2022-12-11T02:56:12.674Z,10.10
2022-12-11T02:59:18.573Z,8.57
2022-12-11T03:02:20.952Z,9.90
2022-12-11T03:05:23.322Z,9.30
2022-12-11T03:08:25.551Z,7.40
2022-12-11T03:11:27.830Z,7.28
2022-12-11T03:14:29.995Z,7.73
2022-12-11T03:17:41.331Z,8.97
2022-12-11T03:21:05.706Z,7.07
2022-12-11T03:24:39.505Z,7.10
2022-12-11T03:27:48.290Z,6.72
2022-12-11T03:30:52.194Z,6.80
2022-12-11T03:33:56.630Z,5.47
2022-12-11T03:37:00.223Z,6.85
2022-12-11T03:40:07.273Z,5.05
2022-12-11T03:43:11.385Z,5.00
2022-12-11T03:46:17.388Z,4.87
2022-12-11T03:49:24.228Z,4.67
2022-12-11T03:52:27.657Z,5.32
2022-12-11T03:55:30.835Z,4.47
2022-12-11T03:58:33.406Z,4.90
2022-12-11T04:01:35.655Z,5.07
2022-12-11T04:04:39.615Z,6.17
2022-12-11T04:07:41.867Z,4.85
2022-12-11T04:10:44.586Z,5.10
2022-12-11T04:14:06.757Z,4.72
2022-12-11T04:17:09.049Z,4.63
2022-12-11T04:20:30.483Z,4.40
2022-12-11T04:23:51.707Z,4.38
2022-12-11T04:26:54.698Z,6.07
2022-12-11T04:29:57.790Z,4.88
2022-12-11T04:33:00.883Z,4.50
2022-12-11T04:36:04.384Z,5.23
2022-12-11T04:39:07.172Z,4.55
2022-12-11T04:42:10.163Z,5.10
2022-12-11T04:45:13.837Z,4.97
2022-12-11T04:48:17.373Z,4.17
2022-12-11T04:51:20.877Z,4.63
2022-12-11T04:54:23.863Z,4.47
2022-12-11T04:57:26.754Z,4.40
2022-12-11T05:00:29.193Z,3.85
2022-12-11T05:03:31.360Z,4.80
2022-12-11T05:06:33.567Z,5.03
2022-12-11T05:09:36.440Z,3.90
2022-12-11T05:12:38.664Z,5.25
2022-12-11T05:15:40.871Z,4.03
2022-12-11T05:18:43.248Z,3.70
2022-12-11T05:21:45.489Z,4.30
2022-12-11T05:24:47.706Z,4.07
2022-12-11T05:27:49.965Z,3.88
2022-12-11T05:31:02.603Z,4.15
2022-12-11T05:34:05.058Z,4.30
2022-12-11T05:37:08.014Z,5.23
2022-12-11T05:40:13.144Z,4.80
2022-12-11T05:43:16.342Z,4.80
2022-12-11T05:46:24.510Z,4.93
2022-12-11T05:49:30.811Z,5.17
2022-12-11T05:52:33.468Z,5.77
2022-12-11T05:55:35.877Z,5.28
2022-12-11T05:58:38.205Z,5.65
2022-12-11T06:01:42.377Z,4.97
2022-12-11T06:04:44.700Z,5.70
2022-12-11T06:07:47.021Z,7.33
2022-12-11T06:10:50.494Z,5.95
2022-12-11T06:13:53.164Z,4.63
2022-12-11T06:16:55.339Z,4.28
2022-12-11T06:19:57.547Z,5.17
2022-12-11T06:23:02.378Z,4.80
2022-12-11T06:26:04.850Z,4.75
2022-12-11T06:29:10.989Z,5.07
2022-12-11T06:32:15.405Z,5.95
2022-12-11T06:35:17.733Z,6.30
2022-12-11T06:38:19.894Z,4.57
2022-12-11T06:41:22.112Z,7.05
2022-12-11T06:44:25.061Z,6.65
2022-12-11T06:47:28.067Z,6.25
2022-12-11T06:50:30.311Z,7.20
2022-12-11T06:53:32.526Z,7.40
2022-12-11T06:56:34.976Z,7.55
2022-12-11T06:59:37.274Z,6.32
2022-12-11T07:02:39.540Z,7.40
2022-12-11T07:05:41.830Z,8.57
2022-12-11T07:08:44.404Z,10.37
2022-12-11T07:11:46.600Z,8.50
2022-12-11T07:14:48.834Z,9.70
2022-12-11T07:17:51.209Z,9.30
2022-12-11T07:20:53.517Z,8.30
2022-12-11T07:23:55.702Z,10.43
2022-12-11T07:26:58.198Z,10.45
2022-12-11T07:30:00.405Z,10.65
2022-12-11T07:33:02.593Z,9.30
2022-12-11T07:36:06.524Z,9.93
2022-12-11T07:39:09.205Z,9.17
2022-12-11T07:42:11.583Z,10.45
2022-12-11T07:45:14.087Z,8.32
2022-12-11T07:48:16.409Z,9.75
2022-12-11T07:51:28.122Z,8.93
2022-12-11T07:54:30.451Z,10.90
2022-12-11T07:57:32.652Z,10.38
2022-12-11T08:00:34.842Z,11.52
2022-12-11T08:03:37.216Z,9.05
2022-12-11T08:06:40.384Z,10.13
2022-12-11T08:09:42.560Z,9.00
2022-12-11T08:12:44.806Z,8.20
2022-12-11T08:15:47.037Z,8.60
2022-12-11T08:18:49.631Z,9.30
2022-12-11T08:21:52.483Z,8.90
2022-12-11T08:24:54.947Z,8.67
2022-12-11T08:27:57.115Z,8.27
2022-12-11T08:31:00.336Z,7.70
2022-12-11T08:34:02.639Z,8.07
2022-12-11T08:37:04.944Z,7.27
2022-12-11T08:40:08.105Z,6.77
2022-12-11T08:43:10.253Z,7.32
2022-12-11T08:46:13.153Z,9.68
2022-12-11T08:49:15.318Z,8.13
2022-12-11T08:52:17.586Z,7.77
2022-12-11T08:55:22.036Z,7.03
2022-12-11T08:58:24.279Z,6.60
2022-12-11T09:01:27.576Z,7.47
2022-12-11T09:04:30.069Z,5.88
2022-12-11T09:07:32.401Z,7.57
2022-12-11T09:10:34.604Z,11.20
2022-12-11T09:13:37.126Z,5.88
2022-12-11T09:16:43.136Z,7.25
2022-12-11T09:19:45.574Z,6.97
2022-12-11T09:22:47.764Z,5.40
2022-12-11T09:25:49.990Z,8.83
2022-12-11T09:28:53.473Z,5.88
2022-12-11T09:31:55.639Z,8.18
2022-12-11T09:34:57.818Z,6.75
2022-12-11T09:37:59.982Z,6.90
2022-12-11T09:41:03.255Z,6.30
2022-12-11T09:44:11.215Z,15.48
2022-12-11T09:47:25.235Z,39.13
2022-12-11T09:50:32.896Z,6.10
2022-12-11T09:53:36.774Z,19.57
2022-12-11T09:56:39.034Z,10.13
2022-12-11T10:00:04.414Z,9.93
2022-12-11T10:03:08.834Z,7.10
2022-12-11T10:06:32.372Z,11.52
2022-12-11T10:09:51.719Z,5.60
2022-12-11T10:13:15.838Z,19.73
2022-12-11T10:16:33.138Z,45.78
2022-12-11T10:19:41.518Z,15.27
2022-12-11T10:22:45.190Z,8.32
2022-12-11T10:26:07.253Z,6.07
2022-12-11T10:29:14.777Z,5.30
2022-12-11T10:32:33.261Z,5.18
2022-12-11T10:35:41.484Z,5.80
2022-12-11T10:38:45.360Z,5.20
2022-12-11T10:41:50.559Z,4.50
2022-12-11T10:44:58.182Z,7.57
2022-12-11T10:48:18.470Z,5.80
2022-12-11T10:51:33.609Z,5.10
2022-12-11T10:54:41.110Z,5.55
2022-12-11T10:57:43.467Z,6.63
2022-12-11T11:00:46.573Z,5.33
2022-12-11T11:03:58.795Z,5.35
2022-12-11T11:07:12.889Z,5.28
2022-12-11T11:10:17.960Z,5.63
2022-12-11T11:13:22.375Z,5.37
2022-12-11T11:16:25.050Z,4.53
2022-12-11T11:19:33.930Z,5.15
2022-12-11T11:22:43.184Z,5.68
2022-12-11T11:25:56.911Z,5.30
2022-12-11T11:28:59.323Z,5.97
2022-12-11T11:32:14.963Z,4.90
2022-12-11T11:35:19.809Z,4.88
2022-12-11T11:38:30.960Z,5.75
2022-12-11T11:41:44.189Z,5.38
2022-12-11T11:45:22.036Z,5.63
2022-12-11T11:48:36.432Z,4.90
2022-12-11T11:51:58.063Z,5.03
2022-12-11T11:55:10.306Z,5.35
2022-12-11T11:58:16.502Z,4.78
2022-12-11T12:01:20.639Z,5.43
2022-12-11T12:04:23.040Z,4.47
2022-12-11T12:07:28.023Z,5.03
2022-12-11T12:10:38.127Z,5.35
2022-12-11T12:13:58.785Z,4.90
2022-12-11T12:17:07.278Z,5.90
2022-12-11T12:20:21.943Z,6.53
2022-12-11T12:23:54.862Z,6.32
2022-12-11T12:27:50.070Z,6.47
2022-12-11T12:30:52.151Z,5.85
2022-12-11T12:34:25.258Z,7.10
2022-12-11T12:37:30.401Z,4.70
2022-12-11T12:40:36.189Z,5.72
2022-12-11T12:43:56.727Z,6.38
2022-12-11T12:47:10.410Z,6.28
2022-12-11T12:50:20.600Z,5.40
2022-12-11T12:53:26.043Z,5.70
2022-12-11T12:56:46.075Z,5.50
2022-12-11T12:59:54.541Z,6.55
2022-12-11T13:02:57.606Z,6.32
2022-12-11T13:06:05.950Z,6.50
2022-12-11T13:09:19.548Z,7.70
2022-12-11T13:12:33.140Z,6.35
2022-12-11T13:15:42.612Z,5.97
2022-12-11T13:18:47.618Z,7.45
2022-12-11T13:22:32.478Z,6.07
2022-12-11T13:25:55.824Z,6.60
2022-12-11T13:28:58.397Z,5.35
2022-12-11T13:32:09.774Z,7.13
2022-12-11T13:35:16.902Z,10.55
2022-12-11T13:38:20.695Z,8.17
2022-12-11T13:41:23.743Z,7.80
2022-12-11T13:44:29.096Z,7.50
2022-12-11T13:47:32.475Z,8.18
2022-12-11T13:50:35.308Z,7.75
2022-12-11T13:53:40.293Z,6.30
2022-12-11T13:57:02.560Z,8.20
2022-12-11T14:00:05.853Z,8.07
2022-12-11T14:03:08.267Z,7.57
2022-12-11T14:06:18.045Z,8.00
2022-12-11T14:09:24.512Z,8.57
2022-12-11T14:12:27.791Z,8.37
2022-12-11T14:15:31.888Z,7.60
2022-12-11T14:18:35.516Z,8.25
2022-12-11T14:21:38.054Z,9.40
2022-12-11T14:24:49.845Z,8.47
2022-12-11T14:27:56.612Z,8.93
2022-12-11T14:31:00.246Z,9.68
2022-12-11T14:34:36.214Z,9.75
2022-12-11T14:37:40.231Z,8.35
2022-12-11T14:40:45.729Z,7.53
2022-12-11T14:43:51.864Z,8.33
2022-12-11T14:47:02.021Z,8.80
2022-12-11T14:50:27.233Z,8.45
2022-12-11T14:53:34.215Z,10.00
2022-12-11T14:56:36.450Z,8.13
2022-12-11T14:59:44.942Z,9.17
2022-12-11T15:02:58.382Z,9.70
2022-12-11T15:06:01.663Z,9.02
2022-12-11T15:09:19.484Z,11.15
2022-12-11T15:12:22.145Z,8.00
2022-12-11T15:15:26.287Z,9.30
2022-12-11T15:18:34.007Z,9.82
2022-12-11T15:21:36.422Z,11.27
2022-12-11T15:24:41.460Z,10.98
2022-12-11T15:27:44.291Z,9.40
2022-12-11T15:31:02.421Z,10.00
2022-12-11T15:34:22.952Z,10.30
2022-12-11T15:37:26.599Z,10.90
2022-12-11T15:40:29.007Z,9.77
2022-12-11T15:43:35.969Z,10.03
2022-12-11T15:46:38.957Z,11.07
2022-12-11T15:49:42.959Z,10.70
2022-12-11T15:52:46.863Z,9.40
2022-12-11T15:55:49.352Z,11.35
2022-12-11T15:58:51.537Z,11.03
2022-12-11T16:01:53.831Z,16.40
2022-12-11T16:04:56.065Z,11.07
2022-12-11T16:08:01.050Z,24.73
2022-12-11T16:11:03.645Z,9.70
2022-12-11T16:14:06.450Z,10.87
2022-12-11T16:17:10.923Z,15.87
2022-12-11T16:20:13.829Z,11.40
2022-12-11T16:23:17.442Z,11.52
2022-12-11T16:26:19.872Z,10.75
2022-12-11T16:29:22.371Z,10.93
2022-12-11T16:32:24.993Z,10.33
2022-12-11T16:35:29.025Z,10.48
2022-12-11T16:38:32.136Z,9.75
2022-12-11T16:41:34.588Z,11.43
2022-12-11T16:44:40.996Z,12.43
2022-12-11T16:47:46.638Z,10.27
2022-12-11T16:50:49.586Z,10.52
2022-12-11T16:53:52.201Z,11.93
2022-12-11T16:56:54.634Z,10.65
2022-12-11T16:59:56.882Z,11.07
2022-12-11T17:02:59.598Z,11.00
2022-12-11T17:06:06.643Z,10.75
2022-12-11T17:09:10.153Z,10.55
2022-12-11T17:12:12.635Z,11.02
2022-12-11T17:15:15.414Z,13.13
2022-12-11T17:18:17.876Z,12.03
2022-12-11T17:21:22.480Z,10.85
2022-12-11T17:24:25.373Z,11.18
2022-12-11T17:27:37.304Z,11.60
2022-12-11T17:30:41.717Z,10.97
2022-12-11T17:33:47.790Z,10.70
2022-12-11T17:36:51.837Z,11.30
2022-12-11T17:39:54.839Z,9.15
2022-12-11T17:42:57.643Z,10.38
2022-12-11T17:46:00.733Z,13.50
2022-12-11T17:49:04.948Z,11.87
2022-12-11T17:52:08.324Z,13.18
2022-12-11T17:55:11.334Z,12.40
2022-12-11T17:58:16.789Z,11.48
2022-12-11T18:01:22.726Z,11.43
2022-12-11T18:04:26.070Z,12.00
2022-12-11T18:07:34.176Z,11.40
2022-12-11T18:10:38.669Z,12.60
2022-12-11T18:13:42.427Z,10.80
2022-12-11T18:16:46.790Z,12.20
2022-12-11T18:19:54.612Z,11.53
2022-12-11T18:22:59.445Z,10.32
2022-12-11T18:26:02.265Z,10.18
2022-12-11T18:29:05.192Z,12.55
2022-12-11T18:32:08.533Z,10.27
2022-12-11T18:35:13.058Z,11.03
2022-12-11T18:38:17.243Z,13.25
2022-12-11T18:41:20.727Z,12.63
2022-12-11T18:44:23.381Z,10.63
2022-12-11T18:47:26.875Z,10.20
2022-12-11T18:50:30.608Z,10.97
2022-12-11T18:53:34.775Z,10.68
2022-12-11T18:56:37.951Z,11.35
2022-12-11T18:59:41.967Z,11.60
2022-12-11T19:02:46.537Z,11.60
2022-12-11T19:05:49.489Z,9.83
2022-12-11T19:08:54.084Z,10.73
2022-12-11T19:11:57.431Z,10.73
2022-12-11T19:15:03.033Z,11.50
2022-12-11T19:18:07.596Z,11.23
2022-12-11T19:21:12.570Z,9.50
2022-12-11T19:24:22.701Z,10.23
2022-12-11T19:27:26.245Z,10.90
2022-12-11T19:30:29.326Z,11.18
2022-12-11T19:33:33.952Z,9.73
2022-12-11T19:36:38.832Z,10.33
2022-12-11T19:39:41.756Z,10.52
2022-12-11T19:42:44.732Z,10.57
2022-12-11T19:45:48.289Z,10.65
2022-12-11T19:48:54.674Z,10.20
2022-12-11T19:51:58.579Z,9.90
2022-12-11T19:55:05.059Z,12.27
2022-12-11T19:58:08.620Z,10.00
2022-12-11T20:01:25.362Z,13.32
2022-12-11T20:04:29.048Z,11.93
2022-12-11T20:07:32.566Z,17.60
2022-12-11T20:10:36.700Z,11.05
2022-12-11T20:13:40.734Z,10.65
2022-12-11T20:17:09.984Z,10.63
2022-12-11T20:20:07.602Z,12.20
2022-12-11T20:23:12.413Z,10.20
2022-12-11T20:26:23.859Z,10.45
2022-12-11T20:29:27.297Z,11.48
2022-12-11T20:32:30.705Z,8.95
2022-12-11T20:35:35.794Z,12.50
2022-12-11T20:38:40.217Z,11.47
2022-12-11T20:41:43.444Z,11.90
2022-12-11T20:44:49.260Z,14.00
2022-12-11T20:47:52.260Z,12.70
2022-12-11T20:50:55.580Z,12.57
2022-12-11T20:53:59.882Z,31.30
2022-12-11T20:57:03.174Z,11.27
2022-12-11T21:00:09.678Z,9.88
2022-12-11T21:03:12.879Z,13.98
2022-12-11T21:06:23.802Z,10.77
2022-12-11T21:09:28.180Z,11.67
2022-12-11T21:12:32.202Z,12.20
2022-12-11T21:15:39.368Z,12.48
2022-12-11T21:18:44.265Z,11.98
2022-12-11T21:21:47.342Z,11.93
2022-12-11T21:24:49.711Z,11.87
2022-12-11T21:27:52.320Z,11.32
2022-12-11T21:30:55.271Z,10.57
2022-12-11T21:33:58.411Z,11.57
2022-12-11T21:37:01.073Z,13.63
2022-12-11T21:40:04.511Z,13.00
2022-12-11T21:43:07.010Z,12.25
2022-12-11T21:46:13.915Z,11.23
2022-12-11T21:49:16.496Z,11.88
2022-12-11T21:52:18.701Z,13.13
2022-12-11T21:55:21.067Z,14.27
2022-12-11T21:58:23.214Z,13.63
2022-12-11T22:01:31.482Z,14.55
2022-12-11T22:04:33.764Z,17.23
2022-12-11T22:07:35.947Z,12.70
2022-12-11T22:10:38.161Z,15.27
2022-12-11T22:13:40.437Z,13.23
2022-12-11T22:16:43.225Z,13.52
2022-12-11T22:19:46.348Z,13.95
2022-12-11T22:22:48.564Z,13.47
2022-12-11T22:25:51.643Z,13.13
2022-12-11T22:28:54.954Z,10.70
2022-12-11T22:31:57.245Z,13.85
2022-12-11T22:34:59.524Z,14.75
2022-12-11T22:38:02.045Z,15.33
2022-12-11T22:41:22.315Z,16.07
2022-12-11T22:44:24.776Z,14.48
2022-12-11T22:47:26.981Z,16.33
2022-12-11T22:50:29.180Z,16.83
2022-12-11T22:53:31.554Z,17.37
2022-12-11T22:56:33.729Z,19.13
2022-12-11T22:59:36.661Z,18.67
2022-12-11T23:02:39.070Z,17.52
2022-12-11T23:05:41.354Z,16.90
2022-12-11T23:08:44.133Z,15.90
2022-12-11T23:11:46.438Z,15.73
2022-12-11T23:14:49.365Z,15.95
2022-12-11T23:17:51.548Z,17.23
2022-12-11T23:20:53.779Z,14.50
2022-12-11T23:23:56.857Z,15.20
2022-12-11T23:27:00.320Z,15.07
2022-12-11T23:30:02.641Z,15.73
2022-12-11T23:33:06.597Z,17.35
2022-12-11T23:36:09.127Z,17.58
2022-12-11T23:39:11.393Z,17.00
2022-12-11T23:42:14.185Z,16.23
2022-12-11T23:45:16.523Z,14.90
2022-12-11T23:48:19.059Z,16.88
2022-12-11T23:51:23.301Z,14.98
2022-12-11T23:54:25.560Z,12.67
2022-12-11T23:57:27.733Z,14.97
